Time;durP1;ratioP1;P1;durP2;ratioP2;P2;SDS_P1;SDS_P2;PMS_P1;PMS_P2;Temp;Humidity;BMP_temperature;BMP_pressure;BME280_temperature;BME280_humidity;BME280_pressure;Samples;Min_cycle;Max_cycle;Signal;HPM_P1;HPM_P2
2022/04/11 00:01:37;;;;;;;8.10;4.10;;;;;;;;;;5074170;28;20035;-44
2022/04/11 00:04:06;;;;;;;10.25;5.60;;;;;;;;;;5074174;28;20388;-43
2022/04/11 00:06:34;;;;;;;11.00;6.22;;;;;;;;;;5074018;28;20031;-38
2022/04/11 00:09:00;;;;;;;5.35;3.45;;;;;;;;;;5073930;28;20020;-39
2022/04/11 00:11:28;;;;;;;11.95;5.47;;;;;;;;;;5073855;28;20060;-42
2022/04/11 00:13:55;;;;;;;8.30;4.63;;;;;;;;;;5073719;28;20028;-39
2022/04/11 00:16:21;;;;;;;11.05;4.82;;;;;;;;;;5073834;28;20023;-38
2022/04/11 00:18:49;;;;;;;9.05;4.47;;;;;;;;;;5073696;28;20082;-37
2022/04/11 00:21:15;;;;;;;5.90;3.90;;;;;;;;;;5073691;28;20049;-47
2022/04/11 00:23:41;;;;;;;8.07;4.68;;;;;;;;;;5073796;28;20078;-43
2022/04/11 00:26:07;;;;;;;5.63;3.47;;;;;;;;;;5073548;28;20082;-38
2022/04/11 00:28:33;;;;;;;4.45;2.97;;;;;;;;;;5073401;28;20035;-39
2022/04/11 00:30:59;;;;;;;6.20;3.97;;;;;;;;;;5073593;28;20032;-45
2022/04/11 00:33:25;;;;;;;8.45;3.33;;;;;;;;;;5073846;28;20068;-36
2022/04/11 00:35:52;;;;;;;4.60;2.97;;;;;;;;;;5073719;28;20025;-46
2022/04/11 00:38:18;;;;;;;6.30;3.53;;;;;;;;;;5073541;28;20036;-37
2022/04/11 00:40:44;;;;;;;5.65;3.13;;;;;;;;;;5073389;28;20392;-41
2022/04/11 00:43:10;;;;;;;7.25;3.55;;;;;;;;;;5073712;28;20031;-39
2022/04/11 00:45:36;;;;;;;5.63;3.72;;;;;;;;;;5073336;28;20020;-41
2022/04/11 00:48:03;;;;;;;8.40;3.72;;;;;;;;;;5073186;28;20036;-39
2022/04/11 00:50:31;;;;;;;6.68;3.50;;;;;;;;;;5073601;28;20103;-42
2022/04/11 00:52:58;;;;;;;6.15;3.30;;;;;;;;;;5073282;28;20035;-38
2022/04/11 00:55:25;;;;;;;4.95;2.78;;;;;;;;;;5073257;28;20025;-38
2022/04/11 00:57:51;;;;;;;6.50;2.60;;;;;;;;;;5073255;28;20028;-38
2022/04/11 01:00:18;;;;;;;6.25;3.20;;;;;;;;;;5072958;28;20024;-41
2022/04/11 01:02:44;;;;;;;4.65;2.80;;;;;;;;;;5073509;28;20021;-37
2022/04/11 01:05:10;;;;;;;5.13;3.17;;;;;;;;;;5073401;28;20025;-38
2022/04/11 01:07:37;;;;;;;5.75;3.45;;;;;;;;;;5073172;28;20028;-56
2022/04/11 01:10:03;;;;;;;6.47;3.13;;;;;;;;;;5073186;28;20025;-49
2022/04/11 01:12:29;;;;;;;7.32;3.17;;;;;;;;;;5073014;28;20397;-49
2022/04/11 01:14:55;;;;;;;5.78;2.63;;;;;;;;;;5072082;28;20037;-38
2022/04/11 01:17:32;;;;;;;3.30;2.20;;;;;;;;;;5073456;28;20384;-38
2022/04/11 01:19:58;;;;;;;5.68;2.67;;;;;;;;;;5073116;28;20068;-48
2022/04/11 01:22:24;;;;;;;5.90;2.65;;;;;;;;;;5073331;28;20074;-40
2022/04/11 01:24:50;;;;;;;3.25;2.00;;;;;;;;;;5072975;28;20021;-38
2022/04/11 01:27:17;;;;;;;5.32;2.30;;;;;;;;;;5073012;28;20032;-37
2022/04/11 01:29:47;;;;;;;4.22;2.50;;;;;;;;;;5072737;28;20025;-37
2022/04/11 01:32:13;;;;;;;6.13;3.05;;;;;;;;;;5072767;28;20497;-40
2022/04/11 01:34:40;;;;;;;4.97;2.80;;;;;;;;;;5071612;28;20387;-41
2022/04/11 01:37:11;;;;;;;5.05;2.78;;;;;;;;;;5073144;28;20017;-37
2022/04/11 01:39:37;;;;;;;5.95;2.97;;;;;;;;;;5072923;28;20024;-42
2022/04/11 01:42:04;;;;;;;5.82;2.38;;;;;;;;;;5072909;28;20484;-37
2022/04/11 01:44:30;;;;;;;7.45;2.75;;;;;;;;;;5072837;28;20549;-37
2022/04/11 01:46:56;;;;;;;4.78;2.30;;;;;;;;;;5072944;28;20029;-37
2022/04/11 01:49:22;;;;;;;6.38;2.67;;;;;;;;;;5072632;28;20044;-43
2022/04/11 01:51:48;;;;;;;5.15;2.70;;;;;;;;;;5072649;28;20499;-39
2022/04/11 01:54:16;;;;;;;4.05;2.60;;;;;;;;;;5072937;28;20032;-41
2022/04/11 01:56:43;;;;;;;3.53;2.33;;;;;;;;;;5072606;28;20058;-37
2022/04/11 01:59:09;;;;;;;4.07;2.63;;;;;;;;;;5072511;28;20467;-37
2022/04/11 02:01:35;;;;;;;3.92;2.38;;;;;;;;;;5072987;28;20024;-38
2022/04/11 02:04:01;;;;;;;5.03;2.30;;;;;;;;;;5072844;28;20013;-40
2022/04/11 02:06:27;;;;;;;7.40;2.40;;;;;;;;;;5072721;28;20440;-36
2022/04/11 02:08:55;;;;;;;7.22;2.58;;;;;;;;;;5072783;28;20020;-50
2022/04/11 02:11:21;;;;;;;6.03;3.00;;;;;;;;;;5072602;28;20069;-36
2022/04/11 02:13:52;;;;;;;5.32;3.10;;;;;;;;;;5075463;28;20020;-44
2022/04/11 02:16:23;;;;;;;4.13;2.50;;;;;;;;;;5076104;28;20141;-38
2022/04/11 02:18:49;;;;;;;4.78;2.42;;;;;;;;;;5076219;28;20024;-44
2022/04/11 02:21:15;;;;;;;5.00;2.53;;;;;;;;;;5076117;28;20028;-48
2022/04/11 02:23:42;;;;;;;5.15;2.60;;;;;;;;;;5076099;28;20044;-40
2022/04/11 02:26:08;;;;;;;5.43;2.75;;;;;;;;;;5076006;28;20074;-51
2022/04/11 02:28:34;;;;;;;3.80;2.10;;;;;;;;;;5075904;28;20028;-50
2022/04/11 02:31:00;;;;;;;2.97;1.77;;;;;;;;;;5076037;28;20093;-51
2022/04/11 02:33:26;;;;;;;5.63;2.45;;;;;;;;;;5075894;28;20058;-43
2022/04/11 02:35:52;;;;;;;4.20;1.70;;;;;;;;;;5076126;28;20021;-51
2022/04/11 02:38:19;;;;;;;5.03;2.75;;;;;;;;;;5075649;28;20029;-52
2022/04/11 02:40:47;;;;;;;4.80;2.40;;;;;;;;;;5075718;28;20025;-50
2022/04/11 02:43:13;;;;;;;4.72;2.05;;;;;;;;;;5075574;28;20056;-48
2022/04/11 02:45:42;;;;;;;5.10;2.70;;;;;;;;;;5075529;28;20024;-51
2022/04/11 02:48:08;;;;;;;4.35;2.15;;;;;;;;;;5075523;28;20036;-50
2022/04/11 02:50:34;;;;;;;4.05;2.40;;;;;;;;;;5075601;28;20033;-50
2022/04/11 02:53:00;;;;;;;5.25;2.28;;;;;;;;;;5075474;28;20039;-50
2022/04/11 02:55:26;;;;;;;4.38;2.30;;;;;;;;;;5075376;28;20021;-50
2022/04/11 02:57:52;;;;;;;6.20;2.58;;;;;;;;;;5075164;28;20033;-50
2022/04/11 03:00:18;;;;;;;6.80;2.30;;;;;;;;;;5075309;28;20468;-47
2022/04/11 03:02:44;;;;;;;5.05;2.10;;;;;;;;;;5075249;28;20024;-48
2022/04/11 03:05:10;;;;;;;6.38;2.95;;;;;;;;;;5075353;28;20392;-48
2022/04/11 03:07:39;;;;;;;3.35;2.28;;;;;;;;;;5075240;28;20031;-48
2022/04/11 03:10:06;;;;;;;4.38;2.17;;;;;;;;;;5075285;28;20056;-50
2022/04/11 03:12:33;;;;;;;5.20;2.55;;;;;;;;;;5074914;28;20032;-48
2022/04/11 03:15:00;;;;;;;3.83;2.17;;;;;;;;;;5074994;28;20457;-49
2022/04/11 03:17:26;;;;;;;9.35;2.70;;;;;;;;;;5075063;28;20115;-49
2022/04/11 03:19:52;;;;;;;3.88;2.20;;;;;;;;;;5074847;28;20036;-49
2022/04/11 03:22:18;;;;;;;3.35;2.30;;;;;;;;;;5075008;28;20472;-47
2022/04/11 03:24:44;;;;;;;2.30;1.95;;;;;;;;;;5074791;28;20096;-43
2022/04/11 03:27:10;;;;;;;7.30;2.28;;;;;;;;;;5074603;28;20024;-51
2022/04/11 03:29:36;;;;;;;4.88;2.50;;;;;;;;;;5074606;28;20035;-50
2022/04/11 03:32:02;;;;;;;3.83;2.28;;;;;;;;;;5074686;28;20044;-50
2022/04/11 03:34:29;;;;;;;3.20;2.05;;;;;;;;;;5074872;28;20023;-49
2022/04/11 03:36:55;;;;;;;7.63;4.25;;;;;;;;;;5074672;28;20021;-50
2022/04/11 03:39:23;;;;;;;6.90;3.33;;;;;;;;;;5074616;28;20450;-45
2022/04/11 03:41:49;;;;;;;7.63;3.53;;;;;;;;;;5074407;28;20046;-47
2022/04/11 03:44:16;;;;;;;5.78;2.75;;;;;;;;;;5074627;28;20028;-48
2022/04/11 03:46:44;;;;;;;7.40;2.72;;;;;;;;;;5060979;28;20024;-51
2022/04/11 03:49:10;;;;;;;6.22;2.28;;;;;;;;;;5054016;28;20045;-45
2022/04/11 03:51:36;;;;;;;5.85;2.90;;;;;;;;;;5054306;28;20021;-47
2022/04/11 03:54:02;;;;;;;6.53;2.90;;;;;;;;;;5054201;28;20037;-48
2022/04/11 03:56:28;;;;;;;6.63;2.72;;;;;;;;;;5054079;28;20108;-47
2022/04/11 03:58:54;;;;;;;6.10;3.38;;;;;;;;;;5053958;28;20032;-47
2022/04/11 04:01:21;;;;;;;8.43;4.13;;;;;;;;;;5054273;28;20031;-50
2022/04/11 04:03:47;;;;;;;8.63;4.18;;;;;;;;;;5054089;28;20029;-47
2022/04/11 04:06:13;;;;;;;8.57;3.90;;;;;;;;;;5054275;28;20017;-44
2022/04/11 04:08:39;;;;;;;8.10;3.85;;;;;;;;;;5053897;28;20500;-50
2022/04/11 04:11:06;;;;;;;10.50;3.95;;;;;;;;;;5053983;28;20025;-51
2022/04/11 04:13:34;;;;;;;7.45;3.92;;;;;;;;;;5053628;28;20036;-47
2022/04/11 04:16:00;;;;;;;6.10;3.15;;;;;;;;;;5053821;28;20028;-48
2022/04/11 04:18:26;;;;;;;6.18;3.03;;;;;;;;;;5053872;28;20029;-43
2022/04/11 04:20:52;;;;;;;7.70;3.47;;;;;;;;;;5053839;28;20096;-50
2022/04/11 04:23:19;;;;;;;10.05;3.47;;;;;;;;;;5053840;28;20075;-48
2022/04/11 04:25:45;;;;;;;8.27;3.00;;;;;;;;;;5053726;28;20075;-45
2022/04/11 04:28:13;;;;;;;6.22;3.08;;;;;;;;;;5053400;28;20035;-47
2022/04/11 04:30:44;;;;;;;6.30;3.10;;;;;;;;;;5053702;28;20025;-46
2022/04/11 04:33:10;;;;;;;7.65;2.78;;;;;;;;;;5053516;28;20041;-51
2022/04/11 04:35:36;;;;;;;12.50;3.30;;;;;;;;;;5053229;28;20013;-52
2022/04/11 04:38:03;;;;;;;5.93;3.50;;;;;;;;;;5053536;28;20474;-38
2022/04/11 04:40:29;;;;;;;8.20;4.13;;;;;;;;;;5053596;28;20424;-52
2022/04/11 04:42:58;;;;;;;8.80;4.05;;;;;;;;;;5053349;28;20465;-43
2022/04/11 04:45:24;;;;;;;9.32;4.22;;;;;;;;;;5053333;28;20025;-44
2022/04/11 04:47:50;;;;;;;6.90;3.90;;;;;;;;;;5051856;28;20045;-52
2022/04/11 04:50:16;;;;;;;11.90;5.85;;;;;;;;;;5053135;28;20013;-51
2022/04/11 04:52:42;;;;;;;23.65;9.40;;;;;;;;;;5053015;28;20473;-47
2022/04/11 04:55:09;;;;;;;27.15;12.35;;;;;;;;;;5053321;28;20469;-52
2022/04/11 04:57:37;;;;;;;28.98;12.85;;;;;;;;;;5052449;28;20435;-50
2022/04/11 05:00:04;;;;;;;35.50;17.35;;;;;;;;;;5052926;28;20021;-49
2022/04/11 05:02:36;;;;;;;27.40;14.10;;;;;;;;;;5052847;28;20059;-48
2022/04/11 05:05:06;;;;;;;19.55;11.35;;;;;;;;;;5053125;28;20033;-52
2022/04/11 05:07:32;;;;;;;11.27;5.57;;;;;;;;;;5053142;28;20094;-51
2022/04/11 05:09:58;;;;;;;11.23;6.57;;;;;;;;;;5053018;28;20028;-50
2022/04/11 05:12:24;;;;;;;14.85;7.50;;;;;;;;;;5052748;28;20021;-51
2022/04/11 05:14:50;;;;;;;10.45;6.20;;;;;;;;;;5052796;28;20029;-50
2022/04/11 05:17:16;;;;;;;11.50;4.78;;;;;;;;;;5053183;28;20025;-44
2022/04/11 05:19:42;;;;;;;13.23;7.95;;;;;;;;;;5052949;28;20021;-49
2022/04/11 05:22:11;;;;;;;16.67;9.85;;;;;;;;;;5052858;28;20414;-49
2022/04/11 05:24:39;;;;;;;15.75;8.82;;;;;;;;;;5052886;28;20051;-51
2022/04/11 05:27:05;;;;;;;14.50;7.15;;;;;;;;;;5052784;28;20051;-51
2022/04/11 05:29:31;;;;;;;13.23;6.25;;;;;;;;;;5052797;28;20393;-50
2022/04/11 05:31:57;;;;;;;19.90;11.23;;;;;;;;;;5052997;28;20056;-49
2022/04/11 05:34:23;;;;;;;14.82;8.48;;;;;;;;;;5052924;28;20124;-49
2022/04/11 05:36:49;;;;;;;20.25;10.82;;;;;;;;;;5052795;28;20024;-46
2022/04/11 05:39:15;;;;;;;20.40;10.93;;;;;;;;;;5052744;28;20027;-49
2022/04/11 05:41:41;;;;;;;21.33;8.32;;;;;;;;;;5052752;28;20092;-38
2022/04/11 05:44:08;;;;;;;11.25;5.88;;;;;;;;;;5052738;28;20028;-39
2022/04/11 05:46:36;;;;;;;7.25;5.07;;;;;;;;;;5052622;28;20069;-44
2022/04/11 05:49:07;;;;;;;9.40;4.88;;;;;;;;;;5056461;28;20075;-40
2022/04/11 05:51:33;;;;;;;9.38;4.63;;;;;;;;;;5056615;28;20150;-40
2022/04/11 05:53:59;;;;;;;6.30;3.67;;;;;;;;;;5056451;28;20036;-47
2022/04/11 05:56:25;;;;;;;5.07;3.47;;;;;;;;;;5056640;28;20499;-37
2022/04/11 05:58:51;;;;;;;5.70;3.17;;;;;;;;;;5056195;28;20099;-37
2022/04/11 06:01:17;;;;;;;6.07;2.63;;;;;;;;;;5056297;28;20496;-39
2022/04/11 06:03:43;;;;;;;4.85;2.65;;;;;;;;;;5056576;28;20029;-37
2022/04/11 06:06:09;;;;;;;5.72;2.85;;;;;;;;;;5056443;28;20430;-43
2022/04/11 06:08:36;;;;;;;5.32;3.08;;;;;;;;;;5056289;28;20087;-47
2022/04/11 06:11:02;;;;;;;2.50;2.30;;;;;;;;;;5056155;28;20024;-41
2022/04/11 06:13:28;;;;;;;3.63;3.00;;;;;;;;;;5056283;28;20610;-38
2022/04/11 06:15:55;;;;;;;5.85;3.45;;;;;;;;;;5056315;28;20017;-49
2022/04/11 06:18:21;;;;;;;6.15;2.80;;;;;;;;;;5055954;28;20036;-39
2022/04/11 06:20:49;;;;;;;4.50;2.95;;;;;;;;;;5055994;28;20028;-39
2022/04/11 06:23:16;;;;;;;5.35;2.42;;;;;;;;;;5054847;28;20084;-39
2022/04/11 06:25:42;;;;;;;3.47;2.42;;;;;;;;;;5055954;28;20020;-38
2022/04/11 06:28:08;;;;;;;2.47;2.22;;;;;;;;;;5055583;28;20033;-38
2022/04/11 06:30:34;;;;;;;3.22;2.55;;;;;;;;;;5055775;28;20037;-38
2022/04/11 06:33:00;;;;;;;2.67;2.03;;;;;;;;;;5055933;28;20548;-39
2022/04/11 06:35:26;;;;;;;5.10;2.08;;;;;;;;;;5055819;28;20029;-41
2022/04/11 06:37:52;;;;;;;4.32;3.08;;;;;;;;;;5055666;28;20013;-39
2022/04/11 06:40:18;;;;;;;3.63;2.10;;;;;;;;;;5055521;28;20053;-40
2022/04/11 06:42:44;;;;;;;7.47;2.00;;;;;;;;;;5055437;28;20021;-43
2022/04/11 06:45:10;;;;;;;3.70;2.05;;;;;;;;;;5054236;28;20439;-37
2022/04/11 06:47:37;;;;;;;5.95;3.63;;;;;;;;;;5051812;28;20052;-39
2022/04/11 06:50:05;;;;;;;4.57;2.00;;;;;;;;;;5055543;28;20481;-40
2022/04/11 06:52:34;;;;;;;13.88;2.67;;;;;;;;;;5055491;28;20040;-42
2022/04/11 06:55:02;;;;;;;6.80;2.60;;;;;;;;;;5055353;28;20025;-40
2022/04/11 06:57:29;;;;;;;5.28;2.97;;;;;;;;;;5054970;28;20511;-43
2022/04/11 06:59:55;;;;;;;10.70;3.20;;;;;;;;;;5054823;28;20033;-44
2022/04/11 07:02:21;;;;;;;7.93;2.80;;;;;;;;;;5055354;28;20029;-40
2022/04/11 07:04:47;;;;;;;6.88;3.58;;;;;;;;;;5055113;28;20449;-43
2022/04/11 07:07:13;;;;;;;4.47;2.55;;;;;;;;;;5055218;28;20082;-40
2022/04/11 07:09:40;;;;;;;8.15;3.45;;;;;;;;;;5055179;28;20055;-46
2022/04/11 07:12:06;;;;;;;8.27;3.88;;;;;;;;;;5054988;28;20072;-47
2022/04/11 07:14:34;;;;;;;10.40;5.22;;;;;;;;;;5054936;28;20032;-40
2022/04/11 07:17:00;;;;;;;8.63;5.15;;;;;;;;;;5054848;28;20054;-44
2022/04/11 07:19:26;;;;;;;8.40;4.20;;;;;;;;;;5055077;28;20489;-51
2022/04/11 07:21:53;;;;;;;17.25;8.35;;;;;;;;;;5055025;28;20075;-49
2022/04/11 07:24:23;;;;;;;22.15;7.80;;;;;;;;;;5055081;28;20032;-52
2022/04/11 07:26:49;;;;;;;8.95;4.20;;;;;;;;;;5054695;28;20027;-52
2022/04/11 07:29:15;;;;;;;10.80;4.88;;;;;;;;;;5054555;28;20037;-51
2022/04/11 07:31:41;;;;;;;11.98;5.90;;;;;;;;;;5054778;28;20111;-52
2022/04/11 07:34:07;;;;;;;12.85;6.45;;;;;;;;;;5054764;28;20037;-42
2022/04/11 07:36:34;;;;;;;6.97;3.85;;;;;;;;;;5055330;28;20032;-40
2022/04/11 07:39:00;;;;;;;14.60;7.82;;;;;;;;;;5054414;28;20086;-43
2022/04/11 07:41:26;;;;;;;10.63;5.55;;;;;;;;;;5054333;28;20020;-40
2022/04/11 07:43:57;;;;;;;10.43;5.00;;;;;;;;;;5054626;28;20086;-48
2022/04/11 07:46:23;;;;;;;17.65;6.57;;;;;;;;;;5054469;28;20028;-39
2022/04/11 07:48:50;;;;;;;8.75;5.57;;;;;;;;;;5054253;28;20060;-52
2022/04/11 07:51:16;;;;;;;12.55;6.20;;;;;;;;;;5054380;28;20032;-50
2022/04/11 07:53:42;;;;;;;8.40;4.35;;;;;;;;;;5054213;28;20122;-50
2022/04/11 07:56:08;;;;;;;12.38;6.20;;;;;;;;;;5054153;28;20380;-49
2022/04/11 07:58:34;;;;;;;16.08;7.03;;;;;;;;;;5054041;28;20040;-48
2022/04/11 08:01:02;;;;;;;13.65;7.65;;;;;;;;;;5052876;28;20425;-50
2022/04/11 08:03:29;;;;;;;10.32;5.70;;;;;;;;;;5054160;28;20508;-50
2022/04/11 08:05:55;;;;;;;8.77;3.63;;;;;;;;;;5054139;28;20025;-46
2022/04/11 08:08:21;;;;;;;8.40;4.38;;;;;;;;;;5054063;28;20025;-45
2022/04/11 08:10:47;;;;;;;11.32;4.60;;;;;;;;;;5053086;28;20075;-43
2022/04/11 08:13:13;;;;;;;5.80;3.38;;;;;;;;;;5053995;28;20523;-41
2022/04/11 08:15:39;;;;;;;13.07;6.93;;;;;;;;;;5053072;28;20025;-50
2022/04/11 08:18:08;;;;;;;12.45;5.60;;;;;;;;;;5053960;28;20029;-42
2022/04/11 08:20:34;;;;;;;12.18;5.22;;;;;;;;;;5053970;28;20036;-40
2022/04/11 08:23:00;;;;;;;8.32;3.78;;;;;;;;;;5053762;28;20025;-41
2022/04/11 08:25:26;;;;;;;12.10;5.80;;;;;;;;;;5053741;28;20059;-38
2022/04/11 08:27:53;;;;;;;5.97;3.17;;;;;;;;;;5053370;28;20025;-40
2022/04/11 08:30:19;;;;;;;35.25;18.50;;;;;;;;;;5053650;28;20064;-39
2022/04/11 08:32:49;;;;;;;51.55;26.35;;;;;;;;;;5053684;28;20025;-44
2022/04/11 08:35:16;;;;;;;46.60;24.27;;;;;;;;;;5053688;28;20021;-48
2022/04/11 08:37:42;;;;;;;70.00;36.88;;;;;;;;;;5053466;28;20028;-39
2022/04/11 08:40:11;;;;;;;136.52;70.30;;;;;;;;;;5053547;28;20032;-47
2022/04/11 08:42:43;;;;;;;51.85;23.50;;;;;;;;;;5053465;28;20481;-41
2022/04/11 08:45:10;;;;;;;11.25;6.25;;;;;;;;;;5053428;28;20416;-41
2022/04/11 08:47:41;;;;;;;24.33;11.23;;;;;;;;;;5053410;28;20041;-40
2022/04/11 08:50:07;;;;;;;16.90;8.60;;;;;;;;;;5053514;28;20047;-43
2022/04/11 08:52:35;;;;;;;35.22;17.67;;;;;;;;;;5053364;28;20021;-45
2022/04/11 08:55:04;;;;;;;23.05;10.57;;;;;;;;;;5053303;28;20033;-42
2022/04/11 08:57:30;;;;;;;12.27;6.20;;;;;;;;;;5053211;28;20055;-46
2022/04/11 09:00:01;;;;;;;36.03;20.92;;;;;;;;;;5053047;28;20032;-45
2022/04/11 09:02:34;;;;;;;31.77;18.83;;;;;;;;;;5053364;28;20029;-47
2022/04/11 09:05:00;;;;;;;18.60;9.43;;;;;;;;;;5053311;28;20064;-46
2022/04/11 09:07:26;;;;;;;15.15;8.07;;;;;;;;;;5053231;28;20025;-45
2022/04/11 09:09:52;;;;;;;15.02;6.57;;;;;;;;;;5052996;28;20025;-45
2022/04/11 09:12:21;;;;;;;31.95;17.58;;;;;;;;;;5053382;28;20025;-45
2022/04/11 09:14:57;;;;;;;29.25;14.73;;;;;;;;;;5053083;28;20037;-45
2022/04/11 09:17:24;;;;;;;21.63;10.93;;;;;;;;;;5053272;28;20101;-43
2022/04/11 09:20:05;;;;;;;44.60;24.08;;;;;;;;;;5053112;28;20033;-45
2022/04/11 09:22:31;;;;;;;;;;;;;;;;;;5056460;28;20370;-41
2022/04/11 09:25:06;;;;;;;40.80;20.27;;;;;;;;;;5057080;28;19948;-44
2022/04/11 09:27:32;;;;;;;49.05;22.83;;;;;;;;;;5057038;28;20059;-43
2022/04/11 09:29:58;;;;;;;14.93;6.53;;;;;;;;;;5056852;28;20025;-43
2022/04/11 09:32:24;;;;;;;17.67;8.88;;;;;;;;;;5056884;28;20032;-44
2022/04/11 09:34:54;;;;;;;10.05;3.53;;;;;;;;;;5056733;28;20033;-44
2022/04/11 09:37:20;;;;;;;7.78;2.85;;;;;;;;;;5057269;28;20346;-43
2022/04/11 09:39:55;;;;;;;18.42;6.00;;;;;;;;;;5055633;28;20442;-45
2022/04/11 09:42:31;;;;;;;38.90;10.30;;;;;;;;;;5056674;28;20468;-44
2022/04/11 09:45:01;;;;;;;119.82;41.25;;;;;;;;;;5056949;28;20028;-44
2022/04/11 09:47:27;;;;;;;76.85;34.13;;;;;;;;;;5056507;28;20041;-43
2022/04/11 09:49:53;;;;;;;30.85;12.10;;;;;;;;;;5056741;28;20490;-43
2022/04/11 09:52:20;;;;;;;73.50;28.05;;;;;;;;;;5056816;28;20032;-42
2022/04/11 09:54:47;;;;;;;30.77;11.00;;;;;;;;;;5056551;28;20033;-43
2022/04/11 09:57:14;;;;;;;37.38;10.18;;;;;;;;;;5056672;28;20021;-44
2022/04/11 09:59:44;;;;;;;69.65;21.95;;;;;;;;;;5056287;28;20448;-45
2022/04/11 10:02:11;;;;;;;10.80;3.72;;;;;;;;;;5055883;28;20033;-41
2022/04/11 10:04:38;;;;;;;54.92;27.52;;;;;;;;;;5056510;28;20033;-39
2022/04/11 10:07:05;;;;;;;63.63;20.55;;;;;;;;;;5056240;28;20021;-42
2022/04/11 10:09:31;;;;;;;45.45;24.23;;;;;;;;;;5056465;28;20021;-41
2022/04/11 10:11:57;;;;;;;18.92;7.43;;;;;;;;;;5056436;28;20025;-40
2022/04/11 10:14:27;;;;;;;16.58;6.85;;;;;;;;;;5056097;28;20036;-48
2022/04/11 10:17:01;;;;;;;5.68;1.90;;;;;;;;;;5055017;28;20029;-47
2022/04/11 10:19:30;;;;;;;4.35;2.42;;;;;;;;;;5055702;28;20055;-39
2022/04/11 10:22:02;;;;;;;12.35;6.40;;;;;;;;;;5055213;28;20025;-40
2022/04/11 10:24:34;;;;;;;10.60;5.65;;;;;;;;;;5054713;28;20055;-44
2022/04/11 10:27:20;;;;;;;11.98;6.05;;;;;;;;;;5055219;28;20094;-39
2022/04/11 10:29:49;;;;;;;38.95;19.00;;;;;;;;;;5052936;28;20025;-42
2022/04/11 10:32:25;;;;;;;22.10;11.70;;;;;;;;;;5054945;28;20102;-49
2022/04/11 10:35:04;;;;;;;30.75;13.95;;;;;;;;;;5054631;28;20025;-45
2022/04/11 10:37:39;;;;;;;31.80;15.90;;;;;;;;;;5054699;28;20028;-42
2022/04/11 10:40:21;;;;;;;15.05;7.28;;;;;;;;;;5055292;28;20029;-41
2022/04/11 10:43:01;;;;;;;9.07;4.57;;;;;;;;;;5055839;28;20033;-44
2022/04/11 10:45:34;;;;;;;15.50;7.60;;;;;;;;;;5054412;28;20021;-44
2022/04/11 10:48:01;;;;;;;12.45;5.90;;;;;;;;;;5055362;28;20059;-41
2022/04/11 10:50:39;;;;;;;6.45;3.70;;;;;;;;;;5055710;28;20394;-41
2022/04/11 10:53:10;;;;;;;2.17;1.23;;;;;;;;;;5055641;28;20404;-40
2022/04/11 10:55:36;;;;;;;5.50;1.87;;;;;;;;;;5055562;28;20024;-40
2022/04/11 10:58:03;;;;;;;11.93;5.25;;;;;;;;;;5055332;28;20017;-40
2022/04/11 11:00:31;;;;;;;12.95;2.47;;;;;;;;;;5055475;28;20028;-41
2022/04/11 11:03:00;;;;;;;3.05;1.55;;;;;;;;;;5055277;28;20100;-48
2022/04/11 11:05:28;;;;;;;4.00;1.80;;;;;;;;;;5055189;28;20027;-40
2022/04/11 11:08:09;;;;;;;1.55;0.90;;;;;;;;;;5055445;28;20033;-46
2022/04/11 11:10:42;;;;;;;5.28;2.42;;;;;;;;;;5055304;28;20028;-43
2022/04/11 11:13:23;;;;;;;3.85;1.40;;;;;;;;;;5054936;28;20489;-47
2022/04/11 11:15:49;;;;;;;5.28;1.80;;;;;;;;;;5055138;28;20112;-47
2022/04/11 11:18:20;;;;;;;14.43;5.97;;;;;;;;;;5055156;28;20555;-51
2022/04/11 11:20:51;;;;;;;5.70;2.17;;;;;;;;;;5054998;28;20104;-51
2022/04/11 11:23:29;;;;;;;4.35;1.60;;;;;;;;;;5055081;28;20021;-42
2022/04/11 11:25:55;;;;;;;4.82;1.73;;;;;;;;;;5055124;28;20107;-50
2022/04/11 11:28:21;;;;;;;6.35;2.45;;;;;;;;;;5054819;28;20033;-52
2022/04/11 11:30:48;;;;;;;4.38;2.28;;;;;;;;;;5055040;28;20502;-48
2022/04/11 11:33:15;;;;;;;6.47;1.90;;;;;;;;;;5054717;28;20108;-43
2022/04/11 11:35:48;;;;;;;6.75;1.25;;;;;;;;;;5054705;28;20067;-42
2022/04/11 11:38:14;;;;;;;4.88;1.80;;;;;;;;;;5054922;28;20028;-41
2022/04/11 11:40:51;;;;;;;3.70;2.13;;;;;;;;;;5054555;28;20029;-45
2022/04/11 11:43:17;;;;;;;5.55;2.28;;;;;;;;;;5054533;28;20036;-46
2022/04/11 11:45:44;;;;;;;9.75;2.95;;;;;;;;;;5054510;28;20017;-42
2022/04/11 11:48:24;;;;;;;8.25;3.42;;;;;;;;;;5054679;28;20468;-41
2022/04/11 11:50:51;;;;;;;6.68;2.00;;;;;;;;;;5054858;28;20547;-41
2022/04/11 11:53:18;;;;;;;3.35;1.42;;;;;;;;;;5054399;28;20021;-49
2022/04/11 11:55:59;;;;;;;3.05;1.60;;;;;;;;;;5054440;28;20100;-42
2022/04/11 11:58:39;;;;;;;3.17;1.50;;;;;;;;;;5054537;28;20526;-45
2022/04/11 12:01:12;;;;;;;2.25;1.40;;;;;;;;;;5054213;28;20025;-42
2022/04/11 12:06:23;;;;;;;3.38;1.85;;;;;;;;;;5054403;28;20443;-43
2022/04/11 12:09:01;;;;;;;3.72;1.45;;;;;;;;;;5054263;28;20047;-46
2022/04/11 12:11:28;;;;;;;3.20;1.65;;;;;;;;;;5054271;28;20066;-44
2022/04/11 12:14:05;;;;;;;3.35;1.50;;;;;;;;;;5053983;28;20492;-45
2022/04/11 12:16:32;;;;;;;5.57;1.92;;;;;;;;;;5054751;28;20059;-40
2022/04/11 12:18:59;;;;;;;7.38;1.90;;;;;;;;;;5053997;28;20100;-41
2022/04/11 12:21:31;;;;;;;3.65;1.58;;;;;;;;;;5054152;28;20017;-41
2022/04/11 12:23:58;;;;;;;4.20;1.85;;;;;;;;;;5054101;28;20048;-40
2022/04/11 12:26:28;;;;;;;2.08;1.42;;;;;;;;;;5053893;28;20362;-41
2022/04/11 12:28:56;;;;;;;3.72;1.55;;;;;;;;;;5054075;28;20037;-42
2022/04/11 12:31:22;;;;;;;8.63;1.52;;;;;;;;;;5052720;28;20063;-41
2022/04/11 12:33:52;;;;;;;5.57;1.33;;;;;;;;;;5053659;28;20032;-41
2022/04/11 12:36:26;;;;;;;3.70;1.70;;;;;;;;;;5054001;28;20025;-40
2022/04/11 12:38:56;;;;;;;7.80;1.90;;;;;;;;;;5053717;28;20496;-41
2022/04/11 12:41:33;;;;;;;7.63;2.72;;;;;;;;;;5053801;28;20025;-44
2022/04/11 12:44:00;;;;;;;24.48;4.25;;;;;;;;;;5053341;28;20078;-45
2022/04/11 12:46:26;;;;;;;15.98;3.85;;;;;;;;;;5053715;28;20052;-47
2022/04/11 12:48:56;;;;;;;10.35;2.80;;;;;;;;;;5053436;28;20041;-41
2022/04/11 12:51:22;;;;;;;7.80;2.40;;;;;;;;;;5053544;28;20373;-40
2022/04/11 12:53:49;;;;;;;6.53;3.20;;;;;;;;;;5053310;28;20056;-40
2022/04/11 12:56:17;;;;;;;7.30;2.70;;;;;;;;;;5053066;28;20017;-42
2022/04/11 12:58:43;;;;;;;6.22;2.05;;;;;;;;;;5053386;28;20025;-46
2022/04/11 13:01:09;;;;;;;3.47;1.73;;;;;;;;;;5053425;28;20017;-45
2022/04/11 13:03:35;;;;;;;10.93;2.92;;;;;;;;;;5053357;28;20075;-41
2022/04/11 13:06:03;;;;;;;21.65;3.58;;;;;;;;;;5053232;28;20524;-42
2022/04/11 13:08:30;;;;;;;13.85;4.20;;;;;;;;;;5053323;28;20074;-41
2022/04/11 13:10:58;;;;;;;8.93;3.58;;;;;;;;;;5053460;28;20028;-42
2022/04/11 13:13:26;;;;;;;5.85;2.08;;;;;;;;;;5053204;28;20473;-41
2022/04/11 13:18:37;;;;;;;19.42;2.72;;;;;;;;;;5053610;28;20075;-46
2022/04/11 13:21:03;;;;;;;6.25;3.63;;;;;;;;;;5053021;28;20036;-42
2022/04/11 13:23:29;;;;;;;7.00;3.97;;;;;;;;;;5053191;28;20025;-52
2022/04/11 13:25:55;;;;;;;4.32;2.50;;;;;;;;;;5053048;28;20108;-42
2022/04/11 13:28:22;;;;;;;13.07;2.72;;;;;;;;;;5053159;28;20032;-52
2022/04/11 13:30:48;;;;;;;19.50;2.60;;;;;;;;;;5053248;28;20040;-46
2022/04/11 13:33:18;;;;;;;8.88;1.95;;;;;;;;;;5052781;28;20504;-47
2022/04/11 13:35:44;;;;;;;3.28;1.83;;;;;;;;;;5053046;28;20040;-51
2022/04/11 13:38:11;;;;;;;2.75;1.52;;;;;;;;;;5053005;28;20017;-50
2022/04/11 13:40:39;;;;;;;6.22;3.13;;;;;;;;;;5052847;28;20026;-45
2022/04/11 13:43:06;;;;;;;4.38;2.60;;;;;;;;;;5052853;28;20832;-45
2022/04/11 13:45:32;;;;;;;3.25;2.00;;;;;;;;;;5052752;28;20465;-42
2022/04/11 13:47:58;;;;;;;4.25;1.92;;;;;;;;;;5052712;28;20048;-44
2022/04/11 13:50:24;;;;;;;3.45;2.05;;;;;;;;;;5053057;28;20028;-44
2022/04/11 13:52:50;;;;;;;4.55;1.50;;;;;;;;;;5052773;28;20104;-42
2022/04/11 13:55:16;;;;;;;8.75;2.00;;;;;;;;;;5052742;28;20040;-43
2022/04/11 13:57:42;;;;;;;7.57;1.95;;;;;;;;;;5052575;28;20045;-47
2022/04/11 14:00:09;;;;;;;8.18;2.75;;;;;;;;;;5052503;28;20021;-47
2022/04/11 14:02:35;;;;;;;7.75;3.13;;;;;;;;;;5052919;28;20048;-51
2022/04/11 14:05:01;;;;;;;5.00;3.00;;;;;;;;;;5052771;28;20032;-42
2022/04/11 14:07:27;;;;;;;10.65;4.60;;;;;;;;;;5052800;28;20539;-42
2022/04/11 14:09:53;;;;;;;6.40;3.70;;;;;;;;;;5056043;28;20048;-43
2022/04/11 14:12:19;;;;;;;6.75;3.33;;;;;;;;;;5056222;28;20079;-42
2022/04/11 14:14:45;;;;;;;6.50;3.42;;;;;;;;;;5056082;28;20037;-43
2022/04/11 14:17:14;;;;;;;8.93;2.95;;;;;;;;;;5056324;28;20029;-42
2022/04/11 14:19:40;;;;;;;4.88;2.65;;;;;;;;;;5056093;28;20029;-44
2022/04/11 14:22:06;;;;;;;6.47;2.60;;;;;;;;;;5054966;28;20086;-48
2022/04/11 14:24:34;;;;;;;4.68;2.67;;;;;;;;;;5055960;28;20052;-49
2022/04/11 14:27:00;;;;;;;5.30;2.20;;;;;;;;;;5056045;28;20028;-53
2022/04/11 14:29:26;;;;;;;5.47;2.83;;;;;;;;;;5056145;28;20469;-42
2022/04/11 14:31:53;;;;;;;4.05;1.95;;;;;;;;;;5056034;28;20029;-43
2022/04/11 14:34:19;;;;;;;4.53;2.72;;;;;;;;;;5055840;28;20032;-41
2022/04/11 14:36:45;;;;;;;5.22;2.30;;;;;;;;;;5055828;28;20156;-46
2022/04/11 14:39:13;;;;;;;8.30;3.60;;;;;;;;;;5055762;28;20032;-45
2022/04/11 14:41:40;;;;;;;27.25;15.65;;;;;;;;;;5055737;28;20075;-43
2022/04/11 14:44:06;;;;;;;8.38;4.00;;;;;;;;;;5055788;28;20104;-46
2022/04/11 14:46:33;;;;;;;8.52;4.47;;;;;;;;;;5055710;28;20025;-44